This is the latest recevied weather packets stored in our database for station/object IK2ILW-4. If no packets are shown the sender has not sent any weather packets the latest 10 day(s).
| Time | Temp. | Humidity | Pressure | Rain* | Wind** | Luminosity | Snow |
|---|---|---|---|---|---|---|---|
| 1778089960 | 5° C | 93% | 1011 hPa | 23.37 mm | - | 5 W/m² | - |
| 1778089656 | 5.56° C | 92% | 1011 hPa | 23.11 mm | - | 0 W/m² | - |
| 1778089352 | 6.11° C | 89% | 1011.1 hPa | 22.86 mm | - | 0 W/m² | - |
| 1778089051 | 5.56° C | 91% | 1011.1 hPa | 22.61 mm | - | 0 W/m² | - |
| 1778088751 | 5.56° C | 92% | 1011.1 hPa | 22.1 mm | - | 0 W/m² | - |
| 1778088470 | 5.56° C | 91% | 1010.9 hPa | 21.84 mm | - | 0 W/m² | - |
| 1778088166 | 6.11° C | 90% | 1010.9 hPa | 21.08 mm | - | 0 W/m² | - |
| 1778087862 | 6.11° C | 88% | 1010.9 hPa | 21.08 mm | - | 0 W/m² | - |
| 1778087559 | 5.56° C | 92% | 1010.8 hPa | 20.32 mm | - | 0 W/m² | - |
| 1778087259 | 5° C | 94% | 1010.8 hPa | 20.07 mm | - | 0 W/m² | - |
| 1778086958 | 5° C | 94% | 1010.8 hPa | 19.81 mm | - | 0 W/m² | - |
| 1778086658 | 5° C | 93% | 1010.2 hPa | 19.81 mm | - | 0 W/m² | - |
| 1778086357 | 5° C | 94% | 1010.2 hPa | 19.56 mm | - | 0 W/m² | - |
| 1778086057 | 5° C | 94% | 1010.2 hPa | 19.3 mm | - | 0 W/m² | - |
| 1778085754 | 5.56° C | 93% | 1009.5 hPa | 19.05 mm | - | 0 W/m² | - |
| 1778085469 | 6.11° C | 93% | 1009.5 hPa | 18.54 mm | - | 0 W/m² | - |
| 1778085168 | 7.22° C | 93% | 1009.5 hPa | 18.03 mm | - | 0 W/m² | - |
| 1778084865 | 7.78° C | 92% | 1009.3 hPa | 17.53 mm | - | 0 W/m² | - |
| 1778084565 | 7.22° C | 97% | 1009.3 hPa | 17.02 mm | - | 0 W/m² | - |
| 1778084264 | 7.22° C | 97% | 1009.3 hPa | 16.51 mm | - | 0 W/m² | - |
| 1778083960 | 7.22° C | 97% | 1009.2 hPa | 16.51 mm | - | 0 W/m² | - |
| 1778083668 | 7.22° C | 97% | 1009.2 hPa | 16.26 mm | - | 0 W/m² | - |
| 1778083363 | 7.22° C | 97% | 1009.2 hPa | 16.26 mm | - | 0 W/m² | - |
| 1778083059 | 7.22° C | 97% | 1009.3 hPa | 16.26 mm | - | 0 W/m² | - |
| 1778082755 | 7.22° C | 97% | 1009.3 hPa | 16.26 mm | - | 0 W/m² | - |
* Rain since midnight (hover to see other rain measurements)
** Current wind speed in m/s (hover to see current wind gust speed)